createdAt,value
2023-07-26T00:01:57.700Z,97371.88
2023-07-26T00:04:24.447Z,97349.72
2023-07-26T00:06:51.165Z,97367.47
2023-07-26T00:09:19.950Z,97368.44
2023-07-26T00:11:46.623Z,97370.34
2023-07-26T00:14:14.864Z,97362.41
2023-07-26T00:16:41.643Z,97365.72
2023-07-26T00:19:08.588Z,97366.16
2023-07-26T00:21:35.395Z,97376.50
2023-07-26T00:24:02.412Z,97365.44
2023-07-26T00:26:29.176Z,97377.94
2023-07-26T00:28:56.312Z,97374.63
2023-07-26T00:31:23.442Z,97383.53
2023-07-26T00:33:50.205Z,97380.94
2023-07-26T00:36:16.850Z,97383.09
2023-07-26T00:38:43.625Z,97380.09
2023-07-26T00:41:11.592Z,97379.78
2023-07-26T00:43:38.295Z,97382.75
2023-07-26T00:46:06.993Z,97388.44
2023-07-26T00:48:36.072Z,97395.38
2023-07-26T00:51:03.682Z,97396.44
2023-07-26T00:53:30.590Z,97371.66
2023-07-26T00:55:59.521Z,97387.44
2023-07-26T00:58:26.501Z,97387.97
2023-07-26T01:00:54.697Z,97391.97
2023-07-26T01:03:22.025Z,97401.41
2023-07-26T01:06:10.578Z,97408.56
2023-07-26T01:09:08.410Z,97413.78
2023-07-26T01:11:51.775Z,97414.03
2023-07-26T01:14:47.406Z,97420.63
2023-07-26T01:17:14.283Z,97413.59
2023-07-26T01:19:42.843Z,97418.06
2023-07-26T01:22:09.520Z,97427.38
2023-07-26T01:24:36.337Z,97418.94
2023-07-26T01:27:04.235Z,97418.75
2023-07-26T01:29:31.228Z,97409.03
2023-07-26T01:31:58.962Z,97414.69
2023-07-26T01:34:25.845Z,97422.59
2023-07-26T01:36:53.852Z,97426.66
2023-07-26T01:39:21.942Z,97426.47
2023-07-26T01:41:48.711Z,97432.28
2023-07-26T01:44:15.368Z,97434.47
2023-07-26T01:46:42.361Z,97441.06
2023-07-26T01:49:08.997Z,97452.47
2023-07-26T01:51:35.755Z,97457.09
2023-07-26T01:54:03.575Z,97450.06
2023-07-26T01:56:30.309Z,97449.38
2023-07-26T01:58:58.431Z,97462.84
2023-07-26T02:01:25.322Z,97466.22
2023-07-26T02:03:51.955Z,97466.47
2023-07-26T02:06:18.743Z,97470.19
2023-07-26T02:08:46.056Z,97466.63
2023-07-26T02:11:12.786Z,97486.91
2023-07-26T02:13:39.440Z,97486.31
2023-07-26T02:16:06.397Z,97494.50
2023-07-26T02:18:33.666Z,97496.31
2023-07-26T02:21:00.399Z,97501.91
2023-07-26T02:23:27.121Z,97499.25
2023-07-26T02:25:53.897Z,97497.13
2023-07-26T02:28:21.357Z,97510.94
2023-07-26T02:30:48.257Z,97508.44
2023-07-26T02:33:14.955Z,97507.13
2023-07-26T02:35:42.139Z,97514.91
2023-07-26T02:38:08.880Z,97518.47
2023-07-26T02:40:37.855Z,97520.91
2023-07-26T02:43:04.481Z,97526.19
2023-07-26T02:45:31.241Z,97535.63
2023-07-26T02:47:58.006Z,97530.09
2023-07-26T02:50:24.904Z,97528.78
2023-07-26T02:52:51.575Z,97539.47
2023-07-26T02:55:18.275Z,97544.00
2023-07-26T02:57:44.895Z,97542.34
2023-07-26T03:00:12.432Z,97532.88
2023-07-26T03:02:39.146Z,97541.13
2023-07-26T03:05:06.250Z,97547.16
2023-07-26T03:07:32.945Z,97543.69
2023-07-26T03:09:59.688Z,97561.28
2023-07-26T03:12:26.480Z,97555.34
2023-07-26T03:14:53.266Z,97553.38
2023-07-26T03:17:23.323Z,97556.75
2023-07-26T03:19:51.673Z,97557.97
2023-07-26T03:22:18.929Z,97566.38
2023-07-26T03:24:45.673Z,97565.41
2023-07-26T03:27:12.555Z,97573.09
2023-07-26T03:29:39.516Z,97579.25
2023-07-26T03:32:07.430Z,97578.88
2023-07-26T03:34:34.363Z,97580.34
2023-07-26T03:37:02.593Z,97580.34
2023-07-26T03:39:29.375Z,97587.09
2023-07-26T03:41:56.051Z,97590.06
2023-07-26T03:44:22.764Z,97593.66
2023-07-26T03:46:50.193Z,97599.16
2023-07-26T03:49:16.964Z,97603.09
2023-07-26T03:51:43.735Z,97603.06
2023-07-26T03:54:10.561Z,97613.00
2023-07-26T03:56:37.295Z,97607.50
2023-07-26T03:59:04.088Z,97622.19
2023-07-26T04:01:31.475Z,97633.78
2023-07-26T04:03:58.313Z,97631.00
2023-07-26T04:06:25.661Z,97632.09
2023-07-26T04:08:52.637Z,97630.94
2023-07-26T04:11:19.353Z,97638.34
2023-07-26T04:13:46.139Z,97644.31
2023-07-26T04:16:21.111Z,97647.59
2023-07-26T04:18:48.681Z,97647.94
2023-07-26T04:21:17.704Z,97655.38
2023-07-26T04:23:45.788Z,97655.88
2023-07-26T04:26:12.882Z,97659.03
2023-07-26T04:28:39.835Z,97659.31
2023-07-26T04:31:06.649Z,97656.59
2023-07-26T04:33:33.717Z,97669.25
2023-07-26T04:36:00.448Z,97663.28
2023-07-26T04:38:27.342Z,97658.41
2023-07-26T04:40:54.410Z,97664.44
2023-07-26T04:43:21.595Z,97675.31
2023-07-26T04:45:52.311Z,97672.56
2023-07-26T04:48:20.742Z,97682.34
2023-07-26T04:50:48.906Z,97685.72
2023-07-26T04:53:16.194Z,97685.25
2023-07-26T04:55:49.755Z,97684.84
2023-07-26T04:58:16.794Z,97694.44
2023-07-26T05:00:43.623Z,97703.53
2023-07-26T05:03:11.280Z,97688.56
2023-07-26T05:05:38.731Z,97692.50
2023-07-26T05:08:06.505Z,97695.78
2023-07-26T05:10:33.307Z,97694.31
2023-07-26T05:13:00.458Z,97702.25
2023-07-26T05:15:27.204Z,97705.31
2023-07-26T05:17:54.123Z,97701.44
2023-07-26T05:20:20.836Z,97716.13
2023-07-26T05:22:47.529Z,97710.59
2023-07-26T05:25:14.250Z,97704.94
2023-07-26T05:27:40.987Z,97710.63
2023-07-26T05:30:08.372Z,97715.38
2023-07-26T05:32:36.288Z,97722.19
2023-07-26T05:35:04.094Z,97708.31
2023-07-26T05:37:35.714Z,97715.38
2023-07-26T05:40:04.283Z,97708.28
2023-07-26T05:42:31.152Z,97717.06
2023-07-26T05:44:57.985Z,97718.94
2023-07-26T05:47:25.313Z,97721.88
2023-07-26T05:49:52.153Z,97720.84
2023-07-26T05:52:19.605Z,97720.31
2023-07-26T05:54:46.544Z,97726.69
2023-07-26T05:57:13.213Z,97730.81
2023-07-26T05:59:39.930Z,97734.59
2023-07-26T06:02:06.689Z,97723.13
2023-07-26T06:04:35.696Z,97734.91
2023-07-26T06:07:03.590Z,97733.41
2023-07-26T06:09:35.218Z,97735.47
2023-07-26T06:12:02.482Z,97740.06
2023-07-26T06:14:30.366Z,97742.38
2023-07-26T06:16:57.586Z,97746.00
2023-07-26T06:19:24.616Z,97750.88
2023-07-26T06:21:56.678Z,97751.59
2023-07-26T06:24:25.002Z,97761.53
2023-07-26T06:26:53.740Z,97763.50
2023-07-26T06:29:21.346Z,97763.34
2023-07-26T06:31:49.599Z,97765.13
2023-07-26T06:34:16.627Z,97764.78
2023-07-26T06:36:43.523Z,97767.22
2023-07-26T06:39:11.161Z,97768.31
2023-07-26T06:41:38.610Z,97769.41
2023-07-26T06:44:06.098Z,97768.25
2023-07-26T06:46:35.073Z,97776.34
2023-07-26T06:49:04.990Z,97768.78
2023-07-26T06:51:32.059Z,97762.34
2023-07-26T06:53:59.037Z,97773.63
2023-07-26T06:56:25.784Z,97769.16
2023-07-26T06:58:55.530Z,97772.72
2023-07-26T07:01:22.503Z,97772.00
2023-07-26T07:03:58.934Z,97761.84
2023-07-26T07:06:29.922Z,97770.44
2023-07-26T07:08:59.265Z,97764.34
2023-07-26T07:11:26.186Z,97764.00
2023-07-26T07:13:53.039Z,97763.66
2023-07-26T07:16:19.799Z,97763.28
2023-07-26T07:18:46.487Z,97762.59
2023-07-26T07:21:13.285Z,97770.00
2023-07-26T07:23:39.949Z,97772.91
2023-07-26T07:26:06.693Z,97770.75
2023-07-26T07:28:33.374Z,97778.91
2023-07-26T07:31:00.112Z,97779.09
2023-07-26T07:33:26.857Z,97783.97
2023-07-26T07:35:53.720Z,97789.50
2023-07-26T07:38:20.460Z,97782.44
2023-07-26T07:40:48.548Z,97782.91
2023-07-26T07:43:15.212Z,97782.38
2023-07-26T07:45:42.377Z,97788.41
2023-07-26T07:48:09.751Z,97781.13
2023-07-26T07:50:37.838Z,97782.84
2023-07-26T07:53:05.740Z,97782.66
2023-07-26T07:55:32.835Z,97787.19
2023-07-26T07:58:02.063Z,97791.06
2023-07-26T08:00:28.942Z,97788.91
2023-07-26T08:02:55.637Z,97796.75
2023-07-26T08:05:22.545Z,97795.59
2023-07-26T08:07:52.189Z,97791.44
2023-07-26T08:10:19.089Z,97792.88
2023-07-26T08:12:45.922Z,97801.72
2023-07-26T08:15:13.171Z,97795.31
2023-07-26T08:17:41.087Z,97803.00
2023-07-26T08:20:08.369Z,97799.38
2023-07-26T08:22:35.482Z,97810.38
2023-07-26T08:25:03.259Z,97802.91
2023-07-26T08:27:31.453Z,97802.28
2023-07-26T08:29:58.213Z,97798.91
2023-07-26T08:32:25.134Z,97803.00
2023-07-26T08:34:51.958Z,97810.28
2023-07-26T08:37:19.995Z,97805.53
2023-07-26T08:39:46.905Z,97807.59
2023-07-26T08:42:13.654Z,97807.78
2023-07-26T08:44:41.806Z,97811.13
2023-07-26T08:47:10.255Z,97813.84
2023-07-26T08:49:37.806Z,97815.44
2023-07-26T08:52:04.934Z,97814.09
2023-07-26T08:54:32.330Z,97806.97
2023-07-26T08:56:59.195Z,97805.44
2023-07-26T08:59:26.497Z,97803.63
2023-07-26T09:02:03.021Z,97817.00
2023-07-26T09:04:34.007Z,97811.38
2023-07-26T09:07:07.547Z,97815.63
2023-07-26T09:09:35.836Z,97807.41
2023-07-26T09:12:04.218Z,97808.28
2023-07-26T09:14:32.906Z,97811.38
2023-07-26T09:17:04.682Z,97815.59
2023-07-26T09:19:36.625Z,97818.41
2023-07-26T09:22:05.998Z,97810.00
2023-07-26T09:24:38.837Z,97811.72
2023-07-26T09:27:08.071Z,97815.97
2023-07-26T09:29:36.987Z,97806.31
2023-07-26T09:32:04.411Z,97814.22
2023-07-26T09:34:31.575Z,97811.22
2023-07-26T09:36:59.024Z,97805.84
2023-07-26T09:39:27.441Z,97814.56
2023-07-26T09:42:07.397Z,97814.81
2023-07-26T09:44:35.735Z,97806.41
2023-07-26T09:47:03.460Z,97810.09
2023-07-26T09:49:33.161Z,97817.31
2023-07-26T09:54:34.155Z,97821.56
2023-07-26T09:57:02.805Z,97815.97
2023-07-26T09:59:31.526Z,97814.63
2023-07-26T10:02:09.363Z,97815.88
2023-07-26T10:04:55.268Z,97817.94
2023-07-26T10:07:27.407Z,97810.31
2023-07-26T10:09:56.112Z,97824.19
2023-07-26T10:12:27.120Z,97812.25
2023-07-26T10:14:57.491Z,97801.44
2023-07-26T10:17:27.810Z,97820.34
2023-07-26T10:19:56.514Z,97813.72
2023-07-26T10:22:24.761Z,97815.81
2023-07-26T10:24:51.604Z,97812.53
2023-07-26T10:27:18.575Z,97812.34
2023-07-26T10:29:45.866Z,97806.91
2023-07-26T10:32:12.966Z,97799.47
2023-07-26T10:34:41.002Z,97811.22
2023-07-26T10:37:18.257Z,97804.22
2023-07-26T10:39:45.641Z,97806.03
2023-07-26T10:42:28.822Z,97802.59
2023-07-26T10:45:00.630Z,97811.44
2023-07-26T10:47:27.533Z,97808.09
2023-07-26T10:49:55.853Z,97819.31
2023-07-26T10:52:22.609Z,97820.72
2023-07-26T10:54:51.420Z,97796.34
2023-07-26T10:57:22.723Z,97819.97
2023-07-26T11:00:18.763Z,97808.31
2023-07-26T11:02:46.800Z,97806.91
2023-07-26T11:05:17.788Z,97796.41
2023-07-26T11:07:51.965Z,97808.84
2023-07-26T11:10:21.814Z,97804.00
2023-07-26T11:13:15.432Z,97806.72
2023-07-26T11:16:17.227Z,97806.13
2023-07-26T11:18:40.500Z,97810.97
2023-07-26T11:21:07.418Z,97809.25
2023-07-26T11:23:34.274Z,97793.06
2023-07-26T11:26:02.579Z,97798.53
2023-07-26T11:28:33.771Z,97792.53
2023-07-26T11:31:01.553Z,97796.56
2023-07-26T11:33:40.280Z,97799.44
2023-07-26T11:36:08.935Z,97791.97
2023-07-26T11:38:35.790Z,97798.00
2023-07-26T11:41:03.275Z,97789.13
2023-07-26T11:43:31.256Z,97794.84
2023-07-26T11:45:58.821Z,97782.94
2023-07-26T11:48:31.699Z,97778.09
2023-07-26T11:51:04.698Z,97778.31
2023-07-26T11:56:08.147Z,97781.16
2023-07-26T11:58:35.712Z,97775.50
2023-07-26T12:01:04.851Z,97776.38
2023-07-26T12:03:32.469Z,97772.31
2023-07-26T12:06:02.741Z,97779.16
2023-07-26T12:08:32.579Z,97779.22
2023-07-26T12:11:07.482Z,97779.41
2023-07-26T12:13:36.035Z,97781.22
2023-07-26T12:16:04.818Z,97783.47
2023-07-26T12:18:32.341Z,97784.09
2023-07-26T12:21:14.138Z,97775.19
2023-07-26T12:23:50.404Z,97773.59
2023-07-26T12:26:17.373Z,97776.84
2023-07-26T12:28:44.436Z,97772.78
2023-07-26T12:31:23.003Z,97780.72
2023-07-26T12:33:58.815Z,97770.84
2023-07-26T12:36:29.373Z,97772.47
2023-07-26T12:38:56.340Z,97781.78
2023-07-26T12:41:25.763Z,97782.78
2023-07-26T12:43:55.042Z,97770.66
2023-07-26T12:46:22.377Z,97770.06
2023-07-26T12:48:49.383Z,97772.91
2023-07-26T12:51:16.953Z,97772.91
2023-07-26T12:53:44.433Z,97778.34
2023-07-26T12:56:11.283Z,97764.34
2023-07-26T12:58:40.048Z,97779.97
2023-07-26T13:01:10.690Z,97771.91
2023-07-26T13:03:37.550Z,97766.44
2023-07-26T13:06:05.613Z,97770.09
2023-07-26T13:08:33.292Z,97773.53
2023-07-26T13:11:00.820Z,97778.19
2023-07-26T13:13:28.011Z,97767.06
2023-07-26T13:15:55.400Z,97772.56
2023-07-26T13:18:22.095Z,97772.94
2023-07-26T13:20:49.092Z,97776.59
2023-07-26T13:23:16.486Z,97771.31
2023-07-26T13:25:43.295Z,97775.41
2023-07-26T13:28:10.095Z,97770.72
2023-07-26T13:30:38.179Z,97772.16
2023-07-26T13:33:05.029Z,97777.19
2023-07-26T13:35:32.255Z,97775.78
2023-07-26T13:37:58.960Z,97779.06
2023-07-26T13:40:26.847Z,97770.53
2023-07-26T13:42:54.994Z,97769.72
2023-07-26T13:45:21.770Z,97767.72
2023-07-26T13:47:48.948Z,97765.31
2023-07-26T13:50:15.750Z,97780.69
2023-07-26T13:52:42.365Z,97770.78
2023-07-26T13:55:09.345Z,97775.22
2023-07-26T13:57:36.148Z,97772.19
2023-07-26T14:00:03.308Z,97776.25
2023-07-26T14:02:38.935Z,97778.88
2023-07-26T14:05:05.835Z,97781.09
2023-07-26T14:07:32.526Z,97777.84
2023-07-26T14:09:59.497Z,97780.28
2023-07-26T14:12:26.248Z,97781.50
2023-07-26T14:14:52.973Z,97781.28
2023-07-26T14:17:21.460Z,97779.44
2023-07-26T14:19:48.517Z,97776.44
2023-07-26T14:22:15.173Z,97779.06
2023-07-26T14:24:41.901Z,97779.28
2023-07-26T14:27:08.645Z,97779.66
2023-07-26T14:29:35.479Z,97778.25
2023-07-26T14:32:02.378Z,97766.50
2023-07-26T14:34:29.493Z,97772.56
2023-07-26T14:36:56.187Z,97774.59
2023-07-26T14:39:23.011Z,97776.19
2023-07-26T14:41:49.686Z,97770.75
2023-07-26T14:44:16.528Z,97760.41
2023-07-26T14:46:43.595Z,97774.41
2023-07-26T14:49:11.572Z,97773.78
2023-07-26T14:51:38.260Z,97775.19
2023-07-26T14:54:05.140Z,97775.63
2023-07-26T14:56:32.098Z,97772.56
2023-07-26T14:58:59.158Z,97770.53
2023-07-26T15:01:25.960Z,97768.69
2023-07-26T15:03:52.931Z,97774.16
2023-07-26T15:06:19.771Z,97766.25
2023-07-26T15:08:46.767Z,97767.69
2023-07-26T15:11:13.434Z,97771.72
2023-07-26T15:13:40.184Z,97775.78
2023-07-26T15:16:07.298Z,97774.56
2023-07-26T15:18:34.232Z,97769.94
2023-07-26T15:21:00.968Z,97764.03
2023-07-26T15:23:30.021Z,97769.72
2023-07-26T15:26:00.725Z,97775.41
2023-07-26T15:28:27.440Z,97769.72
2023-07-26T15:30:54.899Z,97771.56
2023-07-26T15:33:24.073Z,97760.22
2023-07-26T15:35:53.233Z,97776.22
2023-07-26T15:38:24.899Z,97770.13
2023-07-26T15:40:53.939Z,97777.63
2023-07-26T15:43:23.768Z,97768.31
2023-07-26T15:48:21.544Z,97778.84
2023-07-26T15:53:18.077Z,97763.44
2023-07-26T15:55:45.025Z,97766.88
2023-07-26T15:58:11.957Z,97770.34
2023-07-26T16:00:39.243Z,97774.56
2023-07-26T16:03:06.832Z,97775.63
2023-07-26T16:10:33.282Z,97771.56
2023-07-26T16:13:00.038Z,97782.72
2023-07-26T16:20:26.513Z,97768.94
2023-07-26T16:22:53.261Z,97785.13
2023-07-26T16:25:20.197Z,97782.50
2023-07-26T16:27:46.897Z,97777.66
2023-07-26T16:30:13.672Z,97774.19
2023-07-26T16:32:40.807Z,97786.97
2023-07-26T16:35:07.832Z,97786.97
2023-07-26T16:37:34.693Z,97791.63
2023-07-26T16:40:02.109Z,97790.56
2023-07-26T16:42:28.767Z,97799.66
2023-07-26T16:44:55.415Z,97802.50
2023-07-26T16:47:22.424Z,97804.75
2023-07-26T16:49:51.388Z,97804.91
2023-07-26T16:52:20.092Z,97799.47
2023-07-26T16:54:46.884Z,97797.63
2023-07-26T16:57:13.675Z,97810.41
2023-07-26T16:59:40.446Z,97801.47
2023-07-26T17:02:12.457Z,97810.97
2023-07-26T17:04:39.495Z,97811.19
2023-07-26T17:07:07.567Z,97820.31
2023-07-26T17:09:34.686Z,97814.00
2023-07-26T17:12:01.604Z,97822.28
2023-07-26T17:14:28.692Z,97826.53
2023-07-26T17:16:55.549Z,97839.69
2023-07-26T17:19:22.258Z,97841.13
2023-07-26T17:21:48.950Z,97851.00
2023-07-26T17:24:15.942Z,97848.16
2023-07-26T17:26:45.371Z,97852.38
2023-07-26T17:29:12.456Z,97854.16
2023-07-26T17:31:39.436Z,97850.50
2023-07-26T17:34:07.013Z,97842.94
2023-07-26T17:36:34.005Z,97846.38
2023-07-26T17:39:04.572Z,97849.66
2023-07-26T17:41:31.320Z,97848.00
2023-07-26T17:43:57.930Z,97856.28
2023-07-26T17:46:24.702Z,97863.13
2023-07-26T17:48:51.420Z,97867.16
2023-07-26T17:51:18.267Z,97866.50
2023-07-26T17:53:44.999Z,97873.50
2023-07-26T17:56:11.706Z,97884.97
2023-07-26T17:58:38.441Z,97889.06
2023-07-26T18:01:05.478Z,97891.28
2023-07-26T18:03:32.312Z,97895.88
2023-07-26T18:06:01.647Z,97896.44
2023-07-26T18:08:28.522Z,97893.94
2023-07-26T18:10:57.297Z,97898.38
2023-07-26T18:13:25.005Z,97904.81
2023-07-26T18:16:14.794Z,97909.19
2023-07-26T18:18:43.579Z,97914.00
2023-07-26T18:21:10.798Z,97907.25
2023-07-26T18:23:38.914Z,97911.94
2023-07-26T18:26:05.947Z,97905.69
2023-07-26T18:28:32.856Z,97909.25
2023-07-26T18:31:04.095Z,97936.69
2023-07-26T18:33:31.497Z,97935.25
2023-07-26T18:35:58.144Z,97942.56
2023-07-26T18:38:26.313Z,97941.75
2023-07-26T18:40:53.487Z,97937.97
2023-07-26T18:43:22.714Z,97958.97
2023-07-26T18:45:49.885Z,97958.50
2023-07-26T18:48:17.138Z,97964.59
2023-07-26T18:50:43.836Z,97960.53
2023-07-26T18:53:10.748Z,97963.16
2023-07-26T18:55:40.676Z,97963.16
2023-07-26T18:58:07.536Z,97965.97
2023-07-26T19:00:34.519Z,97973.00
2023-07-26T19:03:03.909Z,97969.56
2023-07-26T19:05:31.034Z,97968.75
2023-07-26T19:07:58.268Z,97972.09
2023-07-26T19:10:26.019Z,97975.94
2023-07-26T19:12:52.735Z,97974.47
2023-07-26T19:15:19.403Z,97981.53
2023-07-26T19:17:46.165Z,97980.44
2023-07-26T19:20:12.803Z,97984.38
2023-07-26T19:22:39.520Z,97991.44
2023-07-26T19:25:06.893Z,97995.53
2023-07-26T19:27:33.635Z,98001.59
2023-07-26T19:30:00.309Z,98017.41
2023-07-26T19:32:27.252Z,98020.13
2023-07-26T19:34:53.998Z,98022.69
2023-07-26T19:37:20.936Z,98018.78
2023-07-26T19:39:47.792Z,98018.88
2023-07-26T19:42:14.764Z,98033.22
2023-07-26T19:44:41.496Z,98029.47
2023-07-26T19:47:08.317Z,98047.63
2023-07-26T19:49:34.988Z,98047.44
2023-07-26T19:52:07.869Z,98052.84
2023-07-26T19:54:36.233Z,98060.16
2023-07-26T19:57:03.002Z,98067.84
2023-07-26T19:59:29.847Z,98066.59
2023-07-26T20:01:56.512Z,98071.31
2023-07-26T20:04:24.143Z,98074.66
2023-07-26T20:06:52.918Z,98069.31
2023-07-26T20:09:20.361Z,98080.16
2023-07-26T20:11:47.134Z,98074.59
2023-07-26T20:14:14.485Z,98094.22
2023-07-26T20:16:43.782Z,98080.81
2023-07-26T20:19:11.452Z,98086.66
2023-07-26T20:21:38.932Z,98092.19
2023-07-26T20:24:06.172Z,98081.50
2023-07-26T20:26:33.871Z,98081.56
2023-07-26T20:29:01.790Z,98094.56
2023-07-26T20:31:29.044Z,98098.06
2023-07-26T20:33:55.754Z,98100.97
2023-07-26T20:36:22.423Z,98099.16
2023-07-26T20:38:49.805Z,98107.06
2023-07-26T20:41:16.455Z,98116.63
2023-07-26T20:43:43.220Z,98114.94
2023-07-26T20:46:09.915Z,98127.34
2023-07-26T20:48:36.714Z,98129.94
2023-07-26T20:51:07.255Z,98134.41
2023-07-26T20:53:34.014Z,98143.38
2023-07-26T20:56:01.172Z,98140.78
2023-07-26T20:58:28.186Z,98131.94
2023-07-26T21:00:54.955Z,98133.84
2023-07-26T21:03:21.795Z,98127.94
2023-07-26T21:05:49.044Z,98143.28
2023-07-26T21:08:18.904Z,98144.47
2023-07-26T21:11:01.495Z,98144.59
2023-07-26T21:13:31.433Z,98150.53
2023-07-26T21:16:13.565Z,98149.22
2023-07-26T21:18:51.522Z,98160.16
2023-07-26T21:21:25.952Z,98164.69
2023-07-26T21:24:06.292Z,98155.06
2023-07-26T21:26:36.777Z,98160.41
2023-07-26T21:29:03.960Z,98145.69
2023-07-26T21:31:31.091Z,98151.31
2023-07-26T21:33:58.313Z,98151.41
2023-07-26T21:36:28.320Z,98149.22
2023-07-26T21:38:55.418Z,98151.97
2023-07-26T21:41:22.561Z,98155.56
2023-07-26T21:43:50.511Z,98153.66
2023-07-26T21:46:17.732Z,98160.53
2023-07-26T21:48:44.928Z,98159.53
2023-07-26T21:51:12.100Z,98156.16
2023-07-26T21:53:39.172Z,98163.84
2023-07-26T21:56:06.493Z,98172.38
2023-07-26T21:58:33.245Z,98175.41
2023-07-26T22:00:59.910Z,98171.00
2023-07-26T22:03:26.643Z,98175.59
2023-07-26T22:05:54.310Z,98184.66
2023-07-26T22:08:21.840Z,98189.75
2023-07-26T22:10:48.547Z,98183.38
2023-07-26T22:13:16.139Z,98192.06
2023-07-26T22:15:46.226Z,98192.09
2023-07-26T22:18:13.856Z,98187.00
2023-07-26T22:20:52.521Z,98182.91
2023-07-26T22:23:28.464Z,98191.75
2023-07-26T22:26:07.173Z,98199.75
2023-07-26T22:28:38.210Z,98192.72
2023-07-26T22:31:04.919Z,98201.22
2023-07-26T22:33:31.698Z,98190.75
2023-07-26T22:35:58.412Z,98202.88
2023-07-26T22:38:25.133Z,98200.41
2023-07-26T22:40:51.804Z,98204.50
2023-07-26T22:43:18.639Z,98205.31
2023-07-26T22:45:45.412Z,98202.53
2023-07-26T22:48:12.188Z,98212.50
2023-07-26T22:50:39.101Z,98200.88
2023-07-26T22:53:06.374Z,98204.47
2023-07-26T22:55:33.387Z,98203.81
2023-07-26T22:58:00.293Z,98203.53
2023-07-26T23:00:27.096Z,98201.72
2023-07-26T23:02:53.891Z,98211.69
2023-07-26T23:05:20.968Z,98209.22
2023-07-26T23:07:47.802Z,98208.41
2023-07-26T23:10:14.453Z,98207.09
2023-07-26T23:12:41.192Z,98209.22
2023-07-26T23:15:08.072Z,98206.78
2023-07-26T23:17:34.872Z,98215.44
2023-07-26T23:20:01.623Z,98212.50
2023-07-26T23:22:28.783Z,98217.72
2023-07-26T23:24:55.646Z,98212.97
2023-07-26T23:27:22.530Z,98208.25
2023-07-26T23:29:49.210Z,98215.91
2023-07-26T23:32:16.000Z,98214.63
2023-07-26T23:34:42.720Z,98214.25
2023-07-26T23:37:10.440Z,98215.97
2023-07-26T23:39:37.055Z,98214.81
2023-07-26T23:42:04.000Z,98211.25
2023-07-26T23:44:30.645Z,98213.00
2023-07-26T23:46:57.484Z,98204.00
2023-07-26T23:49:24.213Z,98196.41
2023-07-26T23:51:50.901Z,98194.19
2023-07-26T23:54:17.579Z,98199.09
2023-07-26T23:56:44.442Z,98199.81
2023-07-26T23:59:11.200Z,98204.16
